sensor_id;sensor_type;location;lat;lon;timestamp;P1;durP1;ratioP1;P2;durP2;ratioP2
17696;SDS011;8967;47.984;7.842;2022-09-27T00:00:38;0.90;;;0.50;;
17696;SDS011;8967;47.984;7.842;2022-09-27T00:03:06;2.35;;;0.80;;
17696;SDS011;8967;47.984;7.842;2022-09-27T00:05:33;1.65;;;0.65;;
17696;SDS011;8967;47.984;7.842;2022-09-27T00:08:00;1.13;;;0.73;;
17696;SDS011;8967;47.984;7.842;2022-09-27T00:10:27;0.65;;;0.65;;
17696;SDS011;8967;47.984;7.842;2022-09-27T00:12:55;0.60;;;0.60;;
17696;SDS011;8967;47.984;7.842;2022-09-27T00:15:25;3.40;;;0.80;;
17696;SDS011;8967;47.984;7.842;2022-09-27T00:17:54;0.68;;;0.60;;
17696;SDS011;8967;47.984;7.842;2022-09-27T00:20:21;0.85;;;0.68;;
17696;SDS011;8967;47.984;7.842;2022-09-27T00:22:48;1.27;;;0.70;;
17696;SDS011;8967;47.984;7.842;2022-09-27T00:25:15;1.13;;;0.40;;
17696;SDS011;8967;47.984;7.842;2022-09-27T00:27:42;0.80;;;0.75;;
17696;SDS011;8967;47.984;7.842;2022-09-27T00:30:09;1.70;;;0.50;;
17696;SDS011;8967;47.984;7.842;2022-09-27T00:32:38;2.10;;;0.57;;
17696;SDS011;8967;47.984;7.842;2022-09-27T00:35:07;1.55;;;0.73;;
17696;SDS011;8967;47.984;7.842;2022-09-27T00:37:34;1.27;;;0.75;;
17696;SDS011;8967;47.984;7.842;2022-09-27T00:40:01;0.77;;;0.40;;
17696;SDS011;8967;47.984;7.842;2022-09-27T00:42:28;0.98;;;0.60;;
17696;SDS011;8967;47.984;7.842;2022-09-27T00:45:00;0.60;;;0.60;;
17696;SDS011;8967;47.984;7.842;2022-09-27T00:47:35;0.63;;;0.63;;
17696;SDS011;8967;47.984;7.842;2022-09-27T00:50:12;2.35;;;0.47;;
17696;SDS011;8967;47.984;7.842;2022-09-27T00:52:50;1.15;;;0.60;;
17696;SDS011;8967;47.984;7.842;2022-09-27T00:55:26;0.90;;;0.73;;
17696;SDS011;8967;47.984;7.842;2022-09-27T00:57:56;0.68;;;0.60;;
17696;SDS011;8967;47.984;7.842;2022-09-27T01:00:23;0.82;;;0.57;;
17696;SDS011;8967;47.984;7.842;2022-09-27T01:02:51;2.05;;;0.52;;
17696;SDS011;8967;47.984;7.842;2022-09-27T01:05:21;1.05;;;0.50;;
17696;SDS011;8967;47.984;7.842;2022-09-27T01:07:51;1.85;;;0.65;;
17696;SDS011;8967;47.984;7.842;2022-09-27T01:10:21;0.80;;;0.52;;
17696;SDS011;8967;47.984;7.842;2022-09-27T01:12:53;2.65;;;0.68;;
17696;SDS011;8967;47.984;7.842;2022-09-27T01:15:28;0.70;;;0.70;;
17696;SDS011;8967;47.984;7.842;2022-09-27T01:21:04;2.25;;;0.77;;
17696;SDS011;8967;47.984;7.842;2022-09-27T01:23:57;1.38;;;0.80;;
17696;SDS011;8967;47.984;7.842;2022-09-27T01:29:47;2.17;;;0.75;;
17696;SDS011;8967;47.984;7.842;2022-09-27T01:32:28;1.63;;;0.90;;
17696;SDS011;8967;47.984;7.842;2022-09-27T01:35:01;1.25;;;1.00;;
17696;SDS011;8967;47.984;7.842;2022-09-27T01:37:34;2.13;;;0.98;;
17696;SDS011;8967;47.984;7.842;2022-09-27T01:40:13;1.30;;;0.80;;
17696;SDS011;8967;47.984;7.842;2022-09-27T01:43:05;3.33;;;0.88;;
17696;SDS011;8967;47.984;7.842;2022-09-27T01:45:40;4.72;;;0.80;;
17696;SDS011;8967;47.984;7.842;2022-09-27T01:48:35;2.13;;;0.93;;
17696;SDS011;8967;47.984;7.842;2022-09-27T01:51:16;4.97;;;0.93;;
17696;SDS011;8967;47.984;7.842;2022-09-27T01:53:46;2.22;;;1.13;;
17696;SDS011;8967;47.984;7.842;2022-09-27T01:56:29;1.33;;;0.65;;
17696;SDS011;8967;47.984;7.842;2022-09-27T01:59:14;1.23;;;0.80;;
17696;SDS011;8967;47.984;7.842;2022-09-27T02:01:52;0.98;;;0.75;;
17696;SDS011;8967;47.984;7.842;2022-09-27T02:04:31;1.27;;;0.77;;
17696;SDS011;8967;47.984;7.842;2022-09-27T02:07:11;3.30;;;0.90;;
17696;SDS011;8967;47.984;7.842;2022-09-27T02:09:44;1.63;;;0.90;;
17696;SDS011;8967;47.984;7.842;2022-09-27T02:12:20;1.40;;;0.82;;
17696;SDS011;8967;47.984;7.842;2022-09-27T02:14:55;1.95;;;0.80;;
17696;SDS011;8967;47.984;7.842;2022-09-27T02:17:30;1.05;;;0.50;;
17696;SDS011;8967;47.984;7.842;2022-09-27T02:20:10;3.42;;;1.10;;
17696;SDS011;8967;47.984;7.842;2022-09-27T02:22:52;1.42;;;0.93;;
17696;SDS011;8967;47.984;7.842;2022-09-27T02:25:27;1.65;;;0.75;;
17696;SDS011;8967;47.984;7.842;2022-09-27T02:28:04;4.75;;;1.00;;
17696;SDS011;8967;47.984;7.842;2022-09-27T02:30:40;1.95;;;0.80;;
17696;SDS011;8967;47.984;7.842;2022-09-27T02:33:19;3.63;;;1.20;;
17696;SDS011;8967;47.984;7.842;2022-09-27T02:35:51;2.97;;;1.27;;
17696;SDS011;8967;47.984;7.842;2022-09-27T02:38:18;2.97;;;0.73;;
17696;SDS011;8967;47.984;7.842;2022-09-27T02:40:46;4.43;;;1.05;;
17696;SDS011;8967;47.984;7.842;2022-09-27T02:43:14;3.55;;;1.02;;
17696;SDS011;8967;47.984;7.842;2022-09-27T02:45:48;2.88;;;1.02;;
17696;SDS011;8967;47.984;7.842;2022-09-27T02:48:37;1.70;;;0.75;;
17696;SDS011;8967;47.984;7.842;2022-09-27T02:51:20;0.90;;;0.60;;
17696;SDS011;8967;47.984;7.842;2022-09-27T02:54:02;4.30;;;0.85;;
17696;SDS011;8967;47.984;7.842;2022-09-27T02:56:58;1.77;;;0.80;;
17696;SDS011;8967;47.984;7.842;2022-09-27T03:00:09;3.03;;;0.70;;
17696;SDS011;8967;47.984;7.842;2022-09-27T03:03:00;1.55;;;0.80;;
17696;SDS011;8967;47.984;7.842;2022-09-27T03:05:44;4.95;;;0.80;;
17696;SDS011;8967;47.984;7.842;2022-09-27T03:08:18;3.13;;;0.65;;
17696;SDS011;8967;47.984;7.842;2022-09-27T03:10:45;2.80;;;1.05;;
17696;SDS011;8967;47.984;7.842;2022-09-27T03:13:12;3.10;;;1.08;;
17696;SDS011;8967;47.984;7.842;2022-09-27T03:15:43;5.40;;;1.35;;
17696;SDS011;8967;47.984;7.842;2022-09-27T03:18:28;3.67;;;1.33;;
17696;SDS011;8967;47.984;7.842;2022-09-27T03:21:18;3.88;;;1.30;;
17696;SDS011;8967;47.984;7.842;2022-09-27T03:23:47;4.15;;;1.55;;
17696;SDS011;8967;47.984;7.842;2022-09-27T03:26:15;2.03;;;1.20;;
17696;SDS011;8967;47.984;7.842;2022-09-27T03:28:42;3.67;;;1.27;;
17696;SDS011;8967;47.984;7.842;2022-09-27T03:31:09;3.13;;;1.13;;
17696;SDS011;8967;47.984;7.842;2022-09-27T03:33:44;4.97;;;1.30;;
17696;SDS011;8967;47.984;7.842;2022-09-27T03:36:12;2.92;;;1.20;;
17696;SDS011;8967;47.984;7.842;2022-09-27T03:38:39;1.88;;;1.13;;
17696;SDS011;8967;47.984;7.842;2022-09-27T03:41:11;4.57;;;1.70;;
17696;SDS011;8967;47.984;7.842;2022-09-27T03:43:38;6.53;;;1.08;;
17696;SDS011;8967;47.984;7.842;2022-09-27T03:46:05;4.25;;;1.05;;
17696;SDS011;8967;47.984;7.842;2022-09-27T03:48:32;4.55;;;1.23;;
17696;SDS011;8967;47.984;7.842;2022-09-27T03:51:00;3.28;;;1.38;;
17696;SDS011;8967;47.984;7.842;2022-09-27T03:53:31;1.38;;;0.80;;
17696;SDS011;8967;47.984;7.842;2022-09-27T03:55:58;3.58;;;1.13;;
17696;SDS011;8967;47.984;7.842;2022-09-27T03:58:26;1.92;;;1.20;;
17696;SDS011;8967;47.984;7.842;2022-09-27T04:00:53;2.80;;;1.20;;
17696;SDS011;8967;47.984;7.842;2022-09-27T04:03:21;2.70;;;1.23;;
17696;SDS011;8967;47.984;7.842;2022-09-27T04:06:07;4.55;;;1.38;;
17696;SDS011;8967;47.984;7.842;2022-09-27T04:08:41;4.03;;;1.17;;
17696;SDS011;8967;47.984;7.842;2022-09-27T04:11:09;5.47;;;1.25;;
17696;SDS011;8967;47.984;7.842;2022-09-27T04:13:40;4.38;;;1.45;;
17696;SDS011;8967;47.984;7.842;2022-09-27T04:16:08;4.13;;;1.20;;
17696;SDS011;8967;47.984;7.842;2022-09-27T04:18:53;3.72;;;1.30;;
17696;SDS011;8967;47.984;7.842;2022-09-27T04:21:38;4.65;;;1.35;;
17696;SDS011;8967;47.984;7.842;2022-09-27T04:24:08;2.72;;;1.30;;
17696;SDS011;8967;47.984;7.842;2022-09-27T04:26:37;3.92;;;0.90;;
17696;SDS011;8967;47.984;7.842;2022-09-27T04:29:11;4.28;;;1.40;;
17696;SDS011;8967;47.984;7.842;2022-09-27T04:31:45;1.60;;;0.90;;
17696;SDS011;8967;47.984;7.842;2022-09-27T04:34:15;5.80;;;1.20;;
17696;SDS011;8967;47.984;7.842;2022-09-27T04:36:42;2.95;;;0.88;;
17696;SDS011;8967;47.984;7.842;2022-09-27T04:39:16;3.30;;;0.70;;
17696;SDS011;8967;47.984;7.842;2022-09-27T04:41:45;2.97;;;1.00;;
17696;SDS011;8967;47.984;7.842;2022-09-27T04:44:14;2.90;;;0.82;;
17696;SDS011;8967;47.984;7.842;2022-09-27T04:46:45;2.92;;;0.80;;
17696;SDS011;8967;47.984;7.842;2022-09-27T04:49:12;1.63;;;0.73;;
17696;SDS011;8967;47.984;7.842;2022-09-27T04:51:40;2.78;;;0.93;;
17696;SDS011;8967;47.984;7.842;2022-09-27T04:54:07;1.80;;;0.98;;
17696;SDS011;8967;47.984;7.842;2022-09-27T04:56:42;5.68;;;1.27;;
17696;SDS011;8967;47.984;7.842;2022-09-27T04:59:09;3.45;;;1.20;;
17696;SDS011;8967;47.984;7.842;2022-09-27T05:01:40;3.85;;;1.13;;
17696;SDS011;8967;47.984;7.842;2022-09-27T05:04:16;3.05;;;1.10;;
17696;SDS011;8967;47.984;7.842;2022-09-27T05:06:47;4.93;;;1.20;;
17696;SDS011;8967;47.984;7.842;2022-09-27T05:09:17;3.72;;;1.75;;
17696;SDS011;8967;47.984;7.842;2022-09-27T05:11:50;3.88;;;1.10;;
17696;SDS011;8967;47.984;7.842;2022-09-27T05:14:47;2.67;;;1.42;;
17696;SDS011;8967;47.984;7.842;2022-09-27T05:17:15;3.75;;;1.13;;
17696;SDS011;8967;47.984;7.842;2022-09-27T05:20:21;1.63;;;1.10;;
17696;SDS011;8967;47.984;7.842;2022-09-27T05:23:07;1.83;;;1.20;;
17696;SDS011;8967;47.984;7.842;2022-09-27T05:25:34;4.43;;;1.38;;
17696;SDS011;8967;47.984;7.842;2022-09-27T05:28:03;4.10;;;1.23;;
17696;SDS011;8967;47.984;7.842;2022-09-27T05:30:30;2.33;;;1.42;;
17696;SDS011;8967;47.984;7.842;2022-09-27T05:33:14;4.97;;;1.40;;
17696;SDS011;8967;47.984;7.842;2022-09-27T05:35:42;3.42;;;0.95;;
17696;SDS011;8967;47.984;7.842;2022-09-27T05:38:12;4.57;;;1.73;;
17696;SDS011;8967;47.984;7.842;2022-09-27T05:40:43;7.10;;;1.20;;
17696;SDS011;8967;47.984;7.842;2022-09-27T05:43:12;2.17;;;1.27;;
17696;SDS011;8967;47.984;7.842;2022-09-27T05:45:40;6.20;;;0.85;;
17696;SDS011;8967;47.984;7.842;2022-09-27T05:48:09;3.78;;;1.60;;
17696;SDS011;8967;47.984;7.842;2022-09-27T05:50:45;2.60;;;1.10;;
17696;SDS011;8967;47.984;7.842;2022-09-27T05:53:13;3.88;;;1.05;;
17696;SDS011;8967;47.984;7.842;2022-09-27T05:55:42;4.05;;;1.17;;
17696;SDS011;8967;47.984;7.842;2022-09-27T05:58:11;4.15;;;1.08;;
17696;SDS011;8967;47.984;7.842;2022-09-27T06:00:50;4.45;;;1.10;;
17696;SDS011;8967;47.984;7.842;2022-09-27T06:03:46;3.03;;;1.10;;
17696;SDS011;8967;47.984;7.842;2022-09-27T06:06:39;2.65;;;1.40;;
17696;SDS011;8967;47.984;7.842;2022-09-27T06:09:08;2.22;;;0.90;;
17696;SDS011;8967;47.984;7.842;2022-09-27T06:11:35;2.38;;;0.70;;
17696;SDS011;8967;47.984;7.842;2022-09-27T06:14:03;1.75;;;0.77;;
17696;SDS011;8967;47.984;7.842;2022-09-27T06:16:36;3.17;;;0.98;;
17696;SDS011;8967;47.984;7.842;2022-09-27T06:19:04;5.32;;;1.35;;
17696;SDS011;8967;47.984;7.842;2022-09-27T06:21:33;2.20;;;1.17;;
17696;SDS011;8967;47.984;7.842;2022-09-27T06:24:03;3.53;;;1.30;;
17696;SDS011;8967;47.984;7.842;2022-09-27T06:26:33;4.70;;;1.10;;
17696;SDS011;8967;47.984;7.842;2022-09-27T06:29:22;2.85;;;0.90;;
17696;SDS011;8967;47.984;7.842;2022-09-27T06:31:55;1.70;;;1.08;;
17696;SDS011;8967;47.984;7.842;2022-09-27T06:34:31;3.35;;;1.10;;
17696;SDS011;8967;47.984;7.842;2022-09-27T06:36:58;3.40;;;1.40;;
17696;SDS011;8967;47.984;7.842;2022-09-27T06:39:30;1.02;;;0.95;;
17696;SDS011;8967;47.984;7.842;2022-09-27T06:42:31;1.13;;;0.90;;
17696;SDS011;8967;47.984;7.842;2022-09-27T06:45:17;1.40;;;0.95;;
17696;SDS011;8967;47.984;7.842;2022-09-27T06:48:05;2.30;;;0.90;;
17696;SDS011;8967;47.984;7.842;2022-09-27T06:50:47;2.03;;;0.93;;
17696;SDS011;8967;47.984;7.842;2022-09-27T06:53:15;3.10;;;0.98;;
17696;SDS011;8967;47.984;7.842;2022-09-27T06:55:44;3.80;;;0.90;;
17696;SDS011;8967;47.984;7.842;2022-09-27T06:58:11;3.60;;;1.15;;
17696;SDS011;8967;47.984;7.842;2022-09-27T07:01:14;3.90;;;1.23;;
17696;SDS011;8967;47.984;7.842;2022-09-27T07:04:20;1.73;;;1.10;;
17696;SDS011;8967;47.984;7.842;2022-09-27T07:06:59;1.10;;;0.47;;
17696;SDS011;8967;47.984;7.842;2022-09-27T07:09:32;1.80;;;0.73;;
17696;SDS011;8967;47.984;7.842;2022-09-27T07:12:01;1.20;;;1.10;;
17696;SDS011;8967;47.984;7.842;2022-09-27T07:14:30;2.60;;;1.10;;
17696;SDS011;8967;47.984;7.842;2022-09-27T07:16:58;1.38;;;0.70;;
17696;SDS011;8967;47.984;7.842;2022-09-27T07:19:30;1.10;;;0.70;;
17696;SDS011;8967;47.984;7.842;2022-09-27T07:21:58;1.30;;;0.70;;
17696;SDS011;8967;47.984;7.842;2022-09-27T07:24:25;0.70;;;0.70;;
17696;SDS011;8967;47.984;7.842;2022-09-27T07:26:52;3.83;;;1.70;;
17696;SDS011;8967;47.984;7.842;2022-09-27T07:29:22;1.98;;;1.38;;
17696;SDS011;8967;47.984;7.842;2022-09-27T07:31:51;1.50;;;1.35;;
17696;SDS011;8967;47.984;7.842;2022-09-27T07:34:21;3.40;;;1.50;;
17696;SDS011;8967;47.984;7.842;2022-09-27T07:36:49;1.90;;;1.40;;
17696;SDS011;8967;47.984;7.842;2022-09-27T07:39:19;7.32;;;1.08;;
17696;SDS011;8967;47.984;7.842;2022-09-27T07:41:47;1.05;;;1.00;;
17696;SDS011;8967;47.984;7.842;2022-09-27T07:44:14;1.65;;;0.90;;
17696;SDS011;8967;47.984;7.842;2022-09-27T07:47:02;4.35;;;1.38;;
17696;SDS011;8967;47.984;7.842;2022-09-27T07:49:52;1.52;;;0.80;;
17696;SDS011;8967;47.984;7.842;2022-09-27T07:52:39;3.70;;;1.00;;
17696;SDS011;8967;47.984;7.842;2022-09-27T07:55:33;4.15;;;1.27;;
17696;SDS011;8967;47.984;7.842;2022-09-27T07:58:17;2.88;;;1.40;;
17696;SDS011;8967;47.984;7.842;2022-09-27T08:00:45;2.55;;;1.30;;
17696;SDS011;8967;47.984;7.842;2022-09-27T08:03:15;5.28;;;1.30;;
17696;SDS011;8967;47.984;7.842;2022-09-27T08:05:45;3.42;;;1.52;;
17696;SDS011;8967;47.984;7.842;2022-09-27T08:08:13;8.38;;;1.33;;
17696;SDS011;8967;47.984;7.842;2022-09-27T08:10:42;3.40;;;1.50;;
17696;SDS011;8967;47.984;7.842;2022-09-27T08:13:12;2.70;;;1.00;;
17696;SDS011;8967;47.984;7.842;2022-09-27T08:15:42;5.35;;;1.00;;
17696;SDS011;8967;47.984;7.842;2022-09-27T08:18:09;3.25;;;1.48;;
17696;SDS011;8967;47.984;7.842;2022-09-27T08:20:56;4.60;;;1.40;;
17696;SDS011;8967;47.984;7.842;2022-09-27T08:23:53;1.63;;;1.20;;
17696;SDS011;8967;47.984;7.842;2022-09-27T08:26:40;4.40;;;1.63;;
17696;SDS011;8967;47.984;7.842;2022-09-27T08:29:17;3.03;;;1.45;;
17696;SDS011;8967;47.984;7.842;2022-09-27T08:31:49;4.53;;;1.65;;
17696;SDS011;8967;47.984;7.842;2022-09-27T08:34:18;7.05;;;1.90;;
17696;SDS011;8967;47.984;7.842;2022-09-27T08:36:47;7.13;;;2.20;;
17696;SDS011;8967;47.984;7.842;2022-09-27T08:39:14;6.13;;;2.33;;
17696;SDS011;8967;47.984;7.842;2022-09-27T08:41:49;5.45;;;1.85;;
17696;SDS011;8967;47.984;7.842;2022-09-27T08:44:25;7.70;;;1.92;;
17696;SDS011;8967;47.984;7.842;2022-09-27T08:47:07;3.28;;;1.90;;
17696;SDS011;8967;47.984;7.842;2022-09-27T08:49:40;6.65;;;2.15;;
17696;SDS011;8967;47.984;7.842;2022-09-27T08:52:15;8.68;;;1.67;;
17696;SDS011;8967;47.984;7.842;2022-09-27T08:54:45;6.72;;;1.88;;
17696;SDS011;8967;47.984;7.842;2022-09-27T08:57:14;2.63;;;1.60;;
17696;SDS011;8967;47.984;7.842;2022-09-27T08:59:44;5.72;;;1.63;;
17696;SDS011;8967;47.984;7.842;2022-09-27T09:02:16;6.78;;;1.70;;
17696;SDS011;8967;47.984;7.842;2022-09-27T09:04:48;4.28;;;1.58;;
17696;SDS011;8967;47.984;7.842;2022-09-27T09:07:24;4.60;;;1.55;;
17696;SDS011;8967;47.984;7.842;2022-09-27T09:10:14;4.15;;;1.45;;
17696;SDS011;8967;47.984;7.842;2022-09-27T09:13:13;3.97;;;2.20;;
17696;SDS011;8967;47.984;7.842;2022-09-27T09:15:56;4.85;;;1.58;;
17696;SDS011;8967;47.984;7.842;2022-09-27T09:18:45;4.15;;;1.70;;
17696;SDS011;8967;47.984;7.842;2022-09-27T09:21:51;6.05;;;1.50;;
17696;SDS011;8967;47.984;7.842;2022-09-27T09:24:28;4.13;;;1.70;;
17696;SDS011;8967;47.984;7.842;2022-09-27T09:27:07;3.53;;;1.60;;
17696;SDS011;8967;47.984;7.842;2022-09-27T09:30:00;4.47;;;1.85;;
17696;SDS011;8967;47.984;7.842;2022-09-27T09:32:42;4.63;;;1.75;;
17696;SDS011;8967;47.984;7.842;2022-09-27T09:35:17;4.50;;;1.90;;
17696;SDS011;8967;47.984;7.842;2022-09-27T09:37:47;6.63;;;1.90;;
17696;SDS011;8967;47.984;7.842;2022-09-27T09:40:21;4.00;;;1.60;;
17696;SDS011;8967;47.984;7.842;2022-09-27T09:42:53;3.92;;;1.80;;
17696;SDS011;8967;47.984;7.842;2022-09-27T09:45:25;2.55;;;1.33;;
17696;SDS011;8967;47.984;7.842;2022-09-27T09:47:57;5.32;;;1.75;;
17696;SDS011;8967;47.984;7.842;2022-09-27T09:50:29;6.15;;;1.60;;
17696;SDS011;8967;47.984;7.842;2022-09-27T09:53:01;9.63;;;1.90;;
17696;SDS011;8967;47.984;7.842;2022-09-27T09:55:38;5.25;;;1.70;;
17696;SDS011;8967;47.984;7.842;2022-09-27T09:58:11;3.30;;;1.77;;
17696;SDS011;8967;47.984;7.842;2022-09-27T10:00:50;1.60;;;1.27;;
17696;SDS011;8967;47.984;7.842;2022-09-27T10:03:21;7.38;;;1.58;;
17696;SDS011;8967;47.984;7.842;2022-09-27T10:05:48;6.22;;;1.83;;
17696;SDS011;8967;47.984;7.842;2022-09-27T10:08:16;2.10;;;1.20;;
17696;SDS011;8967;47.984;7.842;2022-09-27T10:10:55;6.28;;;1.80;;
17696;SDS011;8967;47.984;7.842;2022-09-27T10:13:29;3.22;;;1.30;;
17696;SDS011;8967;47.984;7.842;2022-09-27T10:16:01;5.57;;;1.77;;
17696;SDS011;8967;47.984;7.842;2022-09-27T10:18:32;6.75;;;1.58;;
17696;SDS011;8967;47.984;7.842;2022-09-27T10:21:06;3.72;;;1.30;;
17696;SDS011;8967;47.984;7.842;2022-09-27T10:26:57;3.92;;;1.08;;
17696;SDS011;8967;47.984;7.842;2022-09-27T10:29:28;1.27;;;0.90;;
17696;SDS011;8967;47.984;7.842;2022-09-27T10:31:57;1.77;;;0.85;;
17696;SDS011;8967;47.984;7.842;2022-09-27T10:34:41;1.75;;;0.88;;
17696;SDS011;8967;47.984;7.842;2022-09-27T10:37:16;2.50;;;0.75;;
17696;SDS011;8967;47.984;7.842;2022-09-27T10:40:24;2.38;;;0.90;;
17696;SDS011;8967;47.984;7.842;2022-09-27T10:42:56;3.22;;;0.85;;
17696;SDS011;8967;47.984;7.842;2022-09-27T10:45:34;1.75;;;0.80;;
17696;SDS011;8967;47.984;7.842;2022-09-27T10:48:17;5.00;;;1.02;;
17696;SDS011;8967;47.984;7.842;2022-09-27T10:50:54;2.58;;;1.00;;
17696;SDS011;8967;47.984;7.842;2022-09-27T10:53:37;4.25;;;1.23;;
17696;SDS011;8967;47.984;7.842;2022-09-27T10:56:24;1.13;;;0.55;;
17696;SDS011;8967;47.984;7.842;2022-09-27T10:58:57;2.00;;;0.55;;
17696;SDS011;8967;47.984;7.842;2022-09-27T11:01:36;2.97;;;0.88;;
17696;SDS011;8967;47.984;7.842;2022-09-27T11:04:19;2.67;;;1.05;;
17696;SDS011;8967;47.984;7.842;2022-09-27T11:06:49;1.38;;;1.20;;
17696;SDS011;8967;47.984;7.842;2022-09-27T11:09:18;1.70;;;1.05;;
17696;SDS011;8967;47.984;7.842;2022-09-27T11:12:04;1.30;;;0.90;;
17696;SDS011;8967;47.984;7.842;2022-09-27T11:14:36;2.95;;;0.80;;
17696;SDS011;8967;47.984;7.842;2022-09-27T11:17:09;1.02;;;0.60;;
17696;SDS011;8967;47.984;7.842;2022-09-27T11:19:55;2.05;;;0.93;;
17696;SDS011;8967;47.984;7.842;2022-09-27T11:22:36;3.72;;;0.80;;
17696;SDS011;8967;47.984;7.842;2022-09-27T11:25:19;2.08;;;1.10;;
17696;SDS011;8967;47.984;7.842;2022-09-27T11:28:01;1.95;;;1.20;;
17696;SDS011;8967;47.984;7.842;2022-09-27T11:30:41;2.97;;;1.10;;
17696;SDS011;8967;47.984;7.842;2022-09-27T11:33:38;1.98;;;0.85;;
17696;SDS011;8967;47.984;7.842;2022-09-27T11:36:27;7.50;;;1.45;;
17696;SDS011;8967;47.984;7.842;2022-09-27T11:39:05;3.95;;;1.10;;
17696;SDS011;8967;47.984;7.842;2022-09-27T11:41:40;4.85;;;0.80;;
17696;SDS011;8967;47.984;7.842;2022-09-27T11:47:40;3.83;;;1.73;;
17696;SDS011;8967;47.984;7.842;2022-09-27T11:50:31;4.55;;;1.20;;
17696;SDS011;8967;47.984;7.842;2022-09-27T11:53:35;3.17;;;0.90;;
17696;SDS011;8967;47.984;7.842;2022-09-27T11:56:17;4.75;;;1.27;;
17696;SDS011;8967;47.984;7.842;2022-09-27T11:58:57;2.13;;;1.00;;
17696;SDS011;8967;47.984;7.842;2022-09-27T12:01:36;2.20;;;1.10;;
17696;SDS011;8967;47.984;7.842;2022-09-27T12:04:30;2.90;;;1.10;;
17696;SDS011;8967;47.984;7.842;2022-09-27T12:07:21;6.90;;;1.30;;
17696;SDS011;8967;47.984;7.842;2022-09-27T12:09:59;6.07;;;1.20;;
17696;SDS011;8967;47.984;7.842;2022-09-27T12:12:30;2.28;;;1.20;;
17696;SDS011;8967;47.984;7.842;2022-09-27T12:15:00;0.93;;;0.88;;
17696;SDS011;8967;47.984;7.842;2022-09-27T12:17:30;3.95;;;0.95;;
17696;SDS011;8967;47.984;7.842;2022-09-27T12:20:06;3.83;;;1.10;;
17696;SDS011;8967;47.984;7.842;2022-09-27T12:22:47;2.72;;;0.90;;
17696;SDS011;8967;47.984;7.842;2022-09-27T12:25:23;4.90;;;1.30;;
17696;SDS011;8967;47.984;7.842;2022-09-27T12:28:00;4.35;;;1.15;;
17696;SDS011;8967;47.984;7.842;2022-09-27T12:30:36;9.13;;;2.30;;
17696;SDS011;8967;47.984;7.842;2022-09-27T12:33:10;6.25;;;1.20;;
17696;SDS011;8967;47.984;7.842;2022-09-27T12:35:45;4.97;;;1.52;;
17696;SDS011;8967;47.984;7.842;2022-09-27T12:38:17;2.85;;;1.20;;
17696;SDS011;8967;47.984;7.842;2022-09-27T12:40:48;4.55;;;1.08;;
17696;SDS011;8967;47.984;7.842;2022-09-27T12:43:27;1.70;;;0.90;;
17696;SDS011;8967;47.984;7.842;2022-09-27T12:46:10;2.50;;;0.70;;
17696;SDS011;8967;47.984;7.842;2022-09-27T12:48:45;3.10;;;0.93;;
17696;SDS011;8967;47.984;7.842;2022-09-27T12:51:18;2.92;;;0.80;;
17696;SDS011;8967;47.984;7.842;2022-09-27T12:53:55;1.45;;;0.73;;
17696;SDS011;8967;47.984;7.842;2022-09-27T12:56:39;2.55;;;0.80;;
17696;SDS011;8967;47.984;7.842;2022-09-27T12:59:20;1.85;;;0.70;;
17696;SDS011;8967;47.984;7.842;2022-09-27T13:05:07;3.33;;;0.88;;
17696;SDS011;8967;47.984;7.842;2022-09-27T13:07:54;2.55;;;1.10;;
17696;SDS011;8967;47.984;7.842;2022-09-27T13:10:39;2.25;;;0.70;;
17696;SDS011;8967;47.984;7.842;2022-09-27T13:13:22;1.88;;;0.90;;
17696;SDS011;8967;47.984;7.842;2022-09-27T13:18:29;1.00;;;0.77;;
17696;SDS011;8967;47.984;7.842;2022-09-27T13:24:45;0.73;;;0.60;;
17696;SDS011;8967;47.984;7.842;2022-09-27T13:27:45;2.65;;;1.10;;
17696;SDS011;8967;47.984;7.842;2022-09-27T13:33:27;1.30;;;0.73;;
17696;SDS011;8967;47.984;7.842;2022-09-27T13:36:05;3.05;;;0.85;;
17696;SDS011;8967;47.984;7.842;2022-09-27T13:38:51;2.33;;;0.73;;
17696;SDS011;8967;47.984;7.842;2022-09-27T13:41:40;2.83;;;0.80;;
17696;SDS011;8967;47.984;7.842;2022-09-27T13:44:31;3.20;;;0.80;;
17696;SDS011;8967;47.984;7.842;2022-09-27T13:47:12;2.42;;;0.70;;
17696;SDS011;8967;47.984;7.842;2022-09-27T13:49:49;0.93;;;0.70;;
17696;SDS011;8967;47.984;7.842;2022-09-27T13:52:32;1.42;;;0.98;;
17696;SDS011;8967;47.984;7.842;2022-09-27T13:55:37;2.05;;;0.77;;
17696;SDS011;8967;47.984;7.842;2022-09-27T14:01:31;1.88;;;0.70;;
17696;SDS011;8967;47.984;7.842;2022-09-27T14:04:02;4.47;;;0.77;;
17696;SDS011;8967;47.984;7.842;2022-09-27T14:06:40;3.58;;;0.70;;
17696;SDS011;8967;47.984;7.842;2022-09-27T14:09:13;3.55;;;0.60;;
17696;SDS011;8967;47.984;7.842;2022-09-27T14:11:49;1.45;;;0.60;;
17696;SDS011;8967;47.984;7.842;2022-09-27T14:14:21;1.52;;;0.70;;
17696;SDS011;8967;47.984;7.842;2022-09-27T14:16:56;0.88;;;0.60;;
17696;SDS011;8967;47.984;7.842;2022-09-27T14:19:25;1.95;;;0.63;;
17696;SDS011;8967;47.984;7.842;2022-09-27T14:21:54;1.30;;;1.10;;
17696;SDS011;8967;47.984;7.842;2022-09-27T14:24:44;3.33;;;0.80;;
17696;SDS011;8967;47.984;7.842;2022-09-27T14:27:19;2.92;;;0.82;;
17696;SDS011;8967;47.984;7.842;2022-09-27T14:29:53;1.27;;;0.93;;
17696;SDS011;8967;47.984;7.842;2022-09-27T14:32:27;2.20;;;1.10;;
17696;SDS011;8967;47.984;7.842;2022-09-27T14:35:01;1.35;;;0.88;;
17696;SDS011;8967;47.984;7.842;2022-09-27T14:37:54;1.05;;;0.70;;
17696;SDS011;8967;47.984;7.842;2022-09-27T14:40:22;0.95;;;0.77;;
17696;SDS011;8967;47.984;7.842;2022-09-27T14:42:51;0.90;;;0.73;;
17696;SDS011;8967;47.984;7.842;2022-09-27T14:45:21;1.45;;;0.63;;
17696;SDS011;8967;47.984;7.842;2022-09-27T14:47:53;2.50;;;0.88;;
17696;SDS011;8967;47.984;7.842;2022-09-27T14:50:20;1.98;;;0.60;;
17696;SDS011;8967;47.984;7.842;2022-09-27T14:52:49;0.90;;;0.73;;
17696;SDS011;8967;47.984;7.842;2022-09-27T14:55:20;1.02;;;0.90;;
17696;SDS011;8967;47.984;7.842;2022-09-27T14:57:49;4.28;;;0.70;;
17696;SDS011;8967;47.984;7.842;2022-09-27T15:00:21;0.80;;;0.65;;
17696;SDS011;8967;47.984;7.842;2022-09-27T15:02:54;1.80;;;1.10;;
17696;SDS011;8967;47.984;7.842;2022-09-27T15:05:23;1.10;;;0.82;;
17696;SDS011;8967;47.984;7.842;2022-09-27T15:07:51;2.05;;;0.88;;
17696;SDS011;8967;47.984;7.842;2022-09-27T15:10:20;2.63;;;1.63;;
17696;SDS011;8967;47.984;7.842;2022-09-27T15:12:54;0.82;;;0.73;;
17696;SDS011;8967;47.984;7.842;2022-09-27T15:15:26;1.02;;;0.88;;
17696;SDS011;8967;47.984;7.842;2022-09-27T15:17:57;1.85;;;0.90;;
17696;SDS011;8967;47.984;7.842;2022-09-27T15:20:25;1.08;;;0.75;;
17696;SDS011;8967;47.984;7.842;2022-09-27T15:22:55;1.17;;;0.70;;
17696;SDS011;8967;47.984;7.842;2022-09-27T15:25:26;0.82;;;0.80;;
17696;SDS011;8967;47.984;7.842;2022-09-27T15:27:59;0.60;;;0.50;;
17696;SDS011;8967;47.984;7.842;2022-09-27T15:30:32;1.27;;;0.68;;
17696;SDS011;8967;47.984;7.842;2022-09-27T15:33:02;1.30;;;0.95;;
17696;SDS011;8967;47.984;7.842;2022-09-27T15:35:32;2.38;;;0.60;;
17696;SDS011;8967;47.984;7.842;2022-09-27T15:38:10;0.70;;;0.70;;
17696;SDS011;8967;47.984;7.842;2022-09-27T15:40:55;0.40;;;0.40;;
17696;SDS011;8967;47.984;7.842;2022-09-27T15:43:26;0.90;;;0.73;;
17696;SDS011;8967;47.984;7.842;2022-09-27T15:45:55;1.58;;;0.55;;
17696;SDS011;8967;47.984;7.842;2022-09-27T15:48:27;1.40;;;0.73;;
17696;SDS011;8967;47.984;7.842;2022-09-27T15:50:56;1.70;;;0.60;;
17696;SDS011;8967;47.984;7.842;2022-09-27T15:53:39;1.83;;;0.70;;
17696;SDS011;8967;47.984;7.842;2022-09-27T15:56:10;1.08;;;0.60;;
17696;SDS011;8967;47.984;7.842;2022-09-27T15:58:40;0.38;;;0.38;;
17696;SDS011;8967;47.984;7.842;2022-09-27T16:01:14;2.80;;;0.60;;
17696;SDS011;8967;47.984;7.842;2022-09-27T16:03:48;0.95;;;0.63;;
17696;SDS011;8967;47.984;7.842;2022-09-27T16:06:15;1.33;;;0.80;;
17696;SDS011;8967;47.984;7.842;2022-09-27T16:08:45;0.30;;;0.30;;
17696;SDS011;8967;47.984;7.842;2022-09-27T16:11:14;0.90;;;0.50;;
17696;SDS011;8967;47.984;7.842;2022-09-27T16:13:42;0.40;;;0.40;;
17696;SDS011;8967;47.984;7.842;2022-09-27T16:16:13;2.50;;;0.70;;
17696;SDS011;8967;47.984;7.842;2022-09-27T16:18:43;0.70;;;0.70;;